createdAt,value
2022-08-07T00:00:27.296Z,20.24
2022-08-07T00:01:43.687Z,20.27
2022-08-07T00:02:36.552Z,20.23
2022-08-07T00:03:28.210Z,20.21
2022-08-07T00:04:28.464Z,20.21
2022-08-07T00:05:27.701Z,20.23
2022-08-07T00:06:33.093Z,20.18
2022-08-07T00:07:36.875Z,20.16
2022-08-07T00:08:29.501Z,20.18
2022-08-07T00:09:35.409Z,20.12
2022-08-07T00:10:30.865Z,20.18
2022-08-07T00:11:33.026Z,20.18
2022-08-07T00:12:29.533Z,20.13
2022-08-07T00:13:29.805Z,20.12
2022-08-07T00:14:30.946Z,20.06
2022-08-07T00:15:35.865Z,20.05
2022-08-07T00:16:31.686Z,20.00
2022-08-07T00:17:30.931Z,19.97
2022-08-07T00:18:32.189Z,19.95
2022-08-07T00:20:00.046Z,19.98
2022-08-07T00:20:34.341Z,19.98
2022-08-07T00:21:57.385Z,19.98
2022-08-07T00:22:35.089Z,19.98
2022-08-07T00:23:32.623Z,20.00
2022-08-07T00:24:32.919Z,20.00
2022-08-07T00:25:37.423Z,20.00
2022-08-07T00:26:49.273Z,19.97
2022-08-07T00:27:35.908Z,19.94
2022-08-07T00:28:35.084Z,19.95
2022-08-07T00:29:37.194Z,19.97
2022-08-07T00:30:34.637Z,19.95
2022-08-07T00:31:38.045Z,19.93
2022-08-07T00:32:36.251Z,19.88
2022-08-07T00:33:35.643Z,19.83
2022-08-07T00:34:35.922Z,19.80
2022-08-07T00:35:36.735Z,19.86
2022-08-07T00:36:36.500Z,19.86
2022-08-07T00:37:47.631Z,19.80
2022-08-07T00:38:38.969Z,19.78
2022-08-07T00:39:37.476Z,19.75
2022-08-07T00:40:40.390Z,19.75
2022-08-07T00:41:53.181Z,19.73
2022-08-07T00:42:39.283Z,19.69
2022-08-07T00:44:01.246Z,19.69
2022-08-07T00:44:41.355Z,19.69
2022-08-07T00:45:39.124Z,19.65
2022-08-07T00:46:39.366Z,19.68
2022-08-07T00:48:09.518Z,19.70
2022-08-07T00:48:42.368Z,19.70
2022-08-07T00:50:19.474Z,19.63
2022-08-07T00:50:50.230Z,19.65
2022-08-07T00:51:57.561Z,19.66
2022-08-07T00:52:42.054Z,19.63
2022-08-07T00:53:50.147Z,19.63
2022-08-07T00:54:42.654Z,19.63
2022-08-07T00:56:00.807Z,19.61
2022-08-07T00:56:43.261Z,19.65
2022-08-07T00:57:55.203Z,19.66
2022-08-07T00:58:43.916Z,19.63
2022-08-07T00:59:43.098Z,19.65
2022-08-07T01:00:54.064Z,19.63
2022-08-07T01:01:44.945Z,19.63
2022-08-07T01:02:43.986Z,19.66
2022-08-07T01:03:55.639Z,19.57
2022-08-07T01:04:45.581Z,19.63
2022-08-07T01:05:51.707Z,19.60
2022-08-07T01:06:46.120Z,19.54
2022-08-07T01:07:45.390Z,19.53
2022-08-07T01:08:52.799Z,19.51
2022-08-07T01:10:05.019Z,19.46
2022-08-07T01:10:47.635Z,19.43
2022-08-07T01:12:23.404Z,19.42
2022-08-07T01:12:53.440Z,19.42
2022-08-07T01:13:56.050Z,19.39
2022-08-07T01:14:48.433Z,19.39
2022-08-07T01:16:04.972Z,19.42
2022-08-07T01:16:49.093Z,19.40
2022-08-07T01:17:48.326Z,19.42
2022-08-07T01:18:48.595Z,19.39
2022-08-07T01:19:54.254Z,19.40
2022-08-07T01:20:57.432Z,19.38
2022-08-07T01:21:53.449Z,19.36
2022-08-07T01:23:00.644Z,19.35
2022-08-07T01:23:51.156Z,19.32
2022-08-07T01:24:50.345Z,19.28
2022-08-07T01:25:55.206Z,19.23
2022-08-07T01:26:52.701Z,19.20
2022-08-07T01:27:51.646Z,19.17
2022-08-07T01:28:51.431Z,19.11
2022-08-07T01:29:51.761Z,19.08
2022-08-07T01:30:52.158Z,19.08
2022-08-07T01:31:52.332Z,19.11
2022-08-07T01:32:52.584Z,19.11
2022-08-07T01:33:57.480Z,19.15
2022-08-07T01:34:53.122Z,19.11
2022-08-07T01:36:05.962Z,19.10
2022-08-07T01:36:57.975Z,19.01
2022-08-07T01:37:53.888Z,18.98
2022-08-07T01:38:54.181Z,18.97
2022-08-07T01:39:55.334Z,18.95
2022-08-07T01:40:54.736Z,18.95
2022-08-07T01:42:07.350Z,18.97
2022-08-07T01:42:58.945Z,18.99
2022-08-07T01:43:55.584Z,18.98
2022-08-07T01:44:55.857Z,18.99
2022-08-07T01:45:56.212Z,19.01
2022-08-07T01:46:56.463Z,18.98
2022-08-07T01:48:19.182Z,18.99
2022-08-07T01:48:57.986Z,18.98
2022-08-07T01:49:57.344Z,18.99
2022-08-07T01:50:57.707Z,18.90
2022-08-07T01:52:03.211Z,18.90
2022-08-07T01:52:59.175Z,18.87
2022-08-07T01:54:12.008Z,18.86
2022-08-07T01:54:59.760Z,18.84
2022-08-07T01:55:59.039Z,18.84
2022-08-07T01:56:59.386Z,18.84
2022-08-07T01:58:05.774Z,18.82
2022-08-07T01:59:00.997Z,18.77
2022-08-07T02:00:00.268Z,18.72
2022-08-07T02:01:25.198Z,18.65
2022-08-07T02:02:04.535Z,18.64
2022-08-07T02:03:11.962Z,18.61
2022-08-07T02:04:02.461Z,18.64
2022-08-07T02:05:01.805Z,18.65
2022-08-07T02:06:02.085Z,18.70
2022-08-07T02:07:02.459Z,18.68
2022-08-07T02:08:02.661Z,18.65
2022-08-07T02:09:04.264Z,18.68
2022-08-07T02:10:03.239Z,18.64
2022-08-07T02:11:03.711Z,18.62
2022-08-07T02:12:06.007Z,18.62
2022-08-07T02:13:04.030Z,18.61
2022-08-07T02:14:04.343Z,18.61
2022-08-07T02:15:06.054Z,18.59
2022-08-07T02:16:04.878Z,18.58
2022-08-07T02:17:06.154Z,18.57
2022-08-07T02:18:05.435Z,18.55
2022-08-07T02:20:07.401Z,18.57
2022-08-07T02:20:09.958Z,18.58
2022-08-07T02:21:07.413Z,18.58
2022-08-07T02:22:07.968Z,18.59
2022-08-07T02:23:07.050Z,18.64
2022-08-07T02:24:07.362Z,18.59
2022-08-07T02:25:13.951Z,18.58
2022-08-07T02:26:30.735Z,18.49
2022-08-07T02:27:09.178Z,18.49
2022-08-07T02:28:08.397Z,18.43
2022-08-07T02:29:13.577Z,18.44
2022-08-07T02:30:10.044Z,18.44
2022-08-07T02:31:18.568Z,18.46
2022-08-07T02:32:10.887Z,18.44
2022-08-07T02:33:10.637Z,18.47
2022-08-07T02:34:11.698Z,18.43
2022-08-07T02:35:11.486Z,18.42
2022-08-07T02:36:30.361Z,18.44
2022-08-07T02:37:11.925Z,18.36
2022-08-07T02:38:11.173Z,18.36
2022-08-07T02:39:17.443Z,18.40
2022-08-07T02:40:30.964Z,18.40
2022-08-07T02:41:13.008Z,18.39
2022-08-07T02:42:14.871Z,18.40
2022-08-07T02:43:12.553Z,18.37
2022-08-07T02:44:12.800Z,18.34
2022-08-07T02:46:00.722Z,18.34
2022-08-07T02:46:14.347Z,18.36
2022-08-07T02:47:19.857Z,18.27
2022-08-07T02:48:15.741Z,18.25
2022-08-07T02:49:56.066Z,18.25
2022-08-07T02:50:15.565Z,18.24
2022-08-07T02:51:42.085Z,18.21
2022-08-07T02:52:16.038Z,18.15
2022-08-07T02:53:16.297Z,18.15
2022-08-07T02:54:15.652Z,18.15
2022-08-07T02:55:28.060Z,18.09
2022-08-07T02:56:20.950Z,18.09
2022-08-07T02:57:16.474Z,18.07
2022-08-07T02:58:16.675Z,18.09
2022-08-07T02:59:17.961Z,18.12
2022-08-07T03:00:18.325Z,18.12
2022-08-07T03:01:19.186Z,18.10
2022-08-07T03:02:18.803Z,18.10
2022-08-07T03:03:21.090Z,18.09
2022-08-07T03:04:19.706Z,18.07
2022-08-07T03:05:20.730Z,18.06
2022-08-07T03:06:25.869Z,18.06
2022-08-07T03:07:21.536Z,18.04
2022-08-07T03:08:20.531Z,18.07
2022-08-07T03:09:41.801Z,18.10
2022-08-07T03:10:23.522Z,18.13
2022-08-07T03:11:20.303Z,18.12
2022-08-07T03:12:22.336Z,18.10
2022-08-07T03:13:21.966Z,18.09
2022-08-07T03:14:22.514Z,18.06
2022-08-07T03:15:30.328Z,18.09
2022-08-07T03:16:27.914Z,18.06
2022-08-07T03:17:23.124Z,18.06
2022-08-07T03:18:22.391Z,18.07
2022-08-07T03:19:23.664Z,18.09
2022-08-07T03:20:23.961Z,18.06
2022-08-07T03:21:23.258Z,18.00
2022-08-07T03:22:24.131Z,18.00
2022-08-07T03:23:33.726Z,18.02
2022-08-07T03:24:27.082Z,18.00
2022-08-07T03:25:24.448Z,18.00
2022-08-07T03:26:24.792Z,17.97
2022-08-07T03:27:30.597Z,17.91
2022-08-07T03:28:38.137Z,17.89
2022-08-07T03:29:27.558Z,17.82
2022-08-07T03:30:25.946Z,17.81
2022-08-07T03:31:42.095Z,17.78
2022-08-07T03:32:28.429Z,17.73
2022-08-07T03:33:26.753Z,17.69
2022-08-07T03:34:28.079Z,17.64
2022-08-07T03:35:27.355Z,17.64
2022-08-07T03:36:28.643Z,17.67
2022-08-07T03:37:28.081Z,17.67
2022-08-07T03:38:29.480Z,17.67
2022-08-07T03:39:59.281Z,17.67
2022-08-07T03:40:36.282Z,17.66
2022-08-07T03:41:42.186Z,17.70
2022-08-07T03:42:30.367Z,17.64
2022-08-07T03:43:32.270Z,17.64
2022-08-07T03:44:34.309Z,17.59
2022-08-07T03:45:31.543Z,17.57
2022-08-07T03:46:30.418Z,17.54
2022-08-07T03:47:47.677Z,17.50
2022-08-07T03:48:31.877Z,17.48
2022-08-07T03:49:31.159Z,17.50
2022-08-07T03:50:31.488Z,17.51
2022-08-07T03:51:47.297Z,17.44
2022-08-07T03:52:33.102Z,17.38
2022-08-07T03:54:01.975Z,17.38
2022-08-07T03:54:53.893Z,17.38
2022-08-07T03:55:58.005Z,17.35
2022-08-07T03:56:34.438Z,17.33
2022-08-07T03:58:34.485Z,17.35
2022-08-07T03:59:09.518Z,17.35
2022-08-07T03:59:35.147Z,17.35
2022-08-07T04:00:36.349Z,17.32
2022-08-07T04:01:34.836Z,17.28
2022-08-07T04:02:35.017Z,17.26
2022-08-07T04:03:49.482Z,17.26
2022-08-07T04:04:36.557Z,17.26
2022-08-07T04:05:40.681Z,17.25
2022-08-07T04:06:38.731Z,17.23
2022-08-07T04:07:42.808Z,17.22
2022-08-07T04:08:37.557Z,17.20
2022-08-07T04:09:44.510Z,17.22
2022-08-07T04:10:38.807Z,17.20
2022-08-07T04:12:23.436Z,17.23
2022-08-07T04:12:38.647Z,17.26
2022-08-07T04:14:10.952Z,17.26
2022-08-07T04:14:46.282Z,17.25
2022-08-07T04:15:39.447Z,17.25
2022-08-07T04:16:38.734Z,17.20
2022-08-07T04:18:30.839Z,17.26
2022-08-07T04:18:59.524Z,17.22
2022-08-07T04:19:52.939Z,17.20
2022-08-07T04:20:54.722Z,17.23
2022-08-07T04:21:58.834Z,17.23
2022-08-07T04:22:41.476Z,17.26
2022-08-07T04:23:43.486Z,17.25
2022-08-07T04:24:42.000Z,17.23
2022-08-07T04:25:41.266Z,17.18
2022-08-07T04:26:43.608Z,17.18
2022-08-07T04:27:46.082Z,17.18
2022-08-07T04:28:43.024Z,17.25
2022-08-07T04:29:58.672Z,17.25
2022-08-07T04:30:57.250Z,17.25
2022-08-07T04:32:03.353Z,17.29
2022-08-07T04:32:44.902Z,17.30
2022-08-07T04:33:43.530Z,17.36
2022-08-07T04:34:43.847Z,17.41
2022-08-07T04:35:44.177Z,17.40
2022-08-07T04:36:45.488Z,17.40
2022-08-07T04:38:02.912Z,17.44
2022-08-07T04:38:46.024Z,17.41
2022-08-07T04:39:47.866Z,17.40
2022-08-07T04:40:51.722Z,17.41
2022-08-07T04:41:50.367Z,17.43
2022-08-07T04:42:46.123Z,17.43
2022-08-07T04:44:10.241Z,17.44
2022-08-07T04:45:02.667Z,17.48
2022-08-07T04:46:01.147Z,17.47
2022-08-07T04:47:03.993Z,17.44
2022-08-07T04:47:58.812Z,17.44
2022-08-07T04:48:50.842Z,17.41
2022-08-07T04:50:03.457Z,17.33
2022-08-07T04:50:52.826Z,17.29
2022-08-07T04:51:49.311Z,17.29
2022-08-07T04:52:52.295Z,17.30
2022-08-07T04:54:01.851Z,17.33
2022-08-07T04:54:50.893Z,17.38
2022-08-07T04:58:11.157Z,17.40
2022-08-07T04:58:16.822Z,17.40
2022-08-07T04:58:23.959Z,17.38
2022-08-07T05:00:11.122Z,17.44
2022-08-07T05:00:52.420Z,17.48
2022-08-07T05:01:51.631Z,17.51
2022-08-07T05:02:51.879Z,17.54
2022-08-07T05:04:06.687Z,17.54
2022-08-07T05:04:53.483Z,17.50
2022-08-07T05:05:57.273Z,17.53
2022-08-07T05:06:53.430Z,17.54
2022-08-07T05:07:55.612Z,17.62
2022-08-07T05:09:01.242Z,17.63
2022-08-07T05:09:54.790Z,17.66
2022-08-07T05:10:58.368Z,17.62
2022-08-07T05:11:57.476Z,17.59
2022-08-07T05:12:59.957Z,17.59
2022-08-07T05:14:53.190Z,17.63
2022-08-07T05:15:03.218Z,17.63
2022-08-07T05:15:56.428Z,17.59
2022-08-07T05:16:55.665Z,17.59
2022-08-07T05:17:56.413Z,17.59
2022-08-07T05:18:56.736Z,17.64
2022-08-07T05:19:56.628Z,17.70
2022-08-07T05:20:56.978Z,17.71
2022-08-07T05:21:59.421Z,17.74
2022-08-07T05:22:57.606Z,17.71
2022-08-07T05:23:58.723Z,17.76
2022-08-07T05:24:59.602Z,17.70
2022-08-07T05:26:13.606Z,17.70
2022-08-07T05:26:59.685Z,17.70
2022-08-07T05:28:02.872Z,17.73
2022-08-07T05:29:00.249Z,17.78
2022-08-07T05:29:59.583Z,17.81
2022-08-07T05:30:59.794Z,17.79
2022-08-07T05:32:00.107Z,17.78
2022-08-07T05:33:00.407Z,17.81
2022-08-07T05:34:04.499Z,17.87
2022-08-07T05:35:02.218Z,17.88
2022-08-07T05:36:01.204Z,17.91
2022-08-07T05:37:01.466Z,17.89
2022-08-07T05:38:08.637Z,17.88
2022-08-07T05:40:05.223Z,17.88
2022-08-07T05:40:16.858Z,17.94
2022-08-07T05:41:05.544Z,17.97
2022-08-07T05:42:08.796Z,18.00
2022-08-07T05:43:04.220Z,18.00
2022-08-07T05:44:11.989Z,18.03
2022-08-07T05:45:14.326Z,18.03
2022-08-07T05:46:05.159Z,18.03
2022-08-07T05:47:17.915Z,18.04
2022-08-07T05:48:06.294Z,18.09
2022-08-07T05:49:11.987Z,18.15
2022-08-07T05:50:06.256Z,18.18
2022-08-07T05:51:05.481Z,18.17
2022-08-07T05:52:05.759Z,18.18
2022-08-07T05:53:05.974Z,18.19
2022-08-07T05:54:09.215Z,18.19
2022-08-07T05:55:10.923Z,18.19
2022-08-07T05:56:06.943Z,18.18
2022-08-07T05:57:07.045Z,18.21
2022-08-07T05:58:07.304Z,18.24
2022-08-07T05:59:07.555Z,18.27
2022-08-07T06:00:07.841Z,18.29
2022-08-07T06:01:14.803Z,18.33
2022-08-07T06:02:09.584Z,18.39
2022-08-07T06:03:08.808Z,18.42
2022-08-07T06:04:09.100Z,18.42
2022-08-07T06:05:10.871Z,18.50
2022-08-07T06:06:10.735Z,18.49
2022-08-07T06:07:11.039Z,18.50
2022-08-07T06:08:30.395Z,18.54
2022-08-07T06:09:11.640Z,18.57
2022-08-07T06:10:11.251Z,18.59
2022-08-07T06:11:11.288Z,18.64
2022-08-07T06:12:12.466Z,18.73
2022-08-07T06:13:13.691Z,18.77
2022-08-07T06:14:21.442Z,18.86
2022-08-07T06:15:15.950Z,18.87
2022-08-07T06:16:13.487Z,18.94
2022-08-07T06:17:13.072Z,18.97
2022-08-07T06:18:13.844Z,19.01
2022-08-07T06:19:17.969Z,19.05
2022-08-07T06:20:25.416Z,19.10
2022-08-07T06:22:11.808Z,19.14
2022-08-07T06:22:24.062Z,19.11
2022-08-07T06:23:46.047Z,19.13
2022-08-07T06:24:45.613Z,19.15
2022-08-07T06:25:16.438Z,19.18
2022-08-07T06:26:15.662Z,19.17
2022-08-07T06:27:22.939Z,19.18
2022-08-07T06:28:17.369Z,19.21
2022-08-07T06:29:17.673Z,19.23
2022-08-07T06:30:32.279Z,19.23
2022-08-07T06:31:18.229Z,19.24
2022-08-07T06:32:17.466Z,19.32
2022-08-07T06:33:17.779Z,19.33
2022-08-07T06:34:20.542Z,19.35
2022-08-07T06:35:18.425Z,19.39
2022-08-07T06:36:34.786Z,19.47
2022-08-07T06:37:20.467Z,19.46
2022-08-07T06:38:20.701Z,19.50
2022-08-07T06:40:17.061Z,19.51
2022-08-07T06:40:21.470Z,19.54
2022-08-07T06:42:00.417Z,19.60
2022-08-07T06:42:32.865Z,19.61
2022-08-07T06:43:22.421Z,19.65
2022-08-07T06:44:21.145Z,19.66
2022-08-07T06:45:21.340Z,19.72
2022-08-07T06:46:31.352Z,19.76
2022-08-07T06:47:22.967Z,19.86
2022-08-07T06:48:25.028Z,19.91
2022-08-07T06:49:22.447Z,19.90
2022-08-07T06:50:22.679Z,19.95
2022-08-07T06:51:31.360Z,20.02
2022-08-07T06:52:31.614Z,20.03
2022-08-07T06:54:24.986Z,20.06
2022-08-07T06:55:27.359Z,20.06
2022-08-07T06:55:32.301Z,20.10
2022-08-07T06:56:25.630Z,20.12
2022-08-07T06:57:39.327Z,20.16
2022-08-07T06:58:27.435Z,20.18
2022-08-07T07:00:12.088Z,20.18
2022-08-07T07:00:27.393Z,20.24
2022-08-07T07:01:26.019Z,20.24
2022-08-07T07:02:54.003Z,20.30
2022-08-07T07:03:47.658Z,20.34
2022-08-07T07:04:32.524Z,20.34
2022-08-07T07:06:03.041Z,20.38
2022-08-07T07:06:28.431Z,20.42
2022-08-07T07:08:00.107Z,20.46
2022-08-07T07:08:29.172Z,20.51
2022-08-07T07:09:31.265Z,20.59
2022-08-07T07:10:28.516Z,20.65
2022-08-07T07:12:08.496Z,20.68
2022-08-07T07:12:33.419Z,20.71
2022-08-07T07:13:55.985Z,20.74
2022-08-07T07:14:30.635Z,20.81
2022-08-07T07:15:35.891Z,20.81
2022-08-07T07:16:31.269Z,20.86
2022-08-07T07:17:39.164Z,20.86
2022-08-07T07:18:47.214Z,20.95
2022-08-07T07:19:57.137Z,21.01
2022-08-07T07:20:32.398Z,21.06
2022-08-07T07:22:05.262Z,21.11
2022-08-07T07:22:35.765Z,21.16
2022-08-07T07:24:09.998Z,21.21
2022-08-07T07:24:33.468Z,21.23
2022-08-07T07:26:32.926Z,21.23
2022-08-07T07:26:37.283Z,21.20
2022-08-07T07:27:35.805Z,21.20
2022-08-07T07:28:48.389Z,21.20
2022-08-07T07:29:56.197Z,21.19
2022-08-07T07:30:38.281Z,21.19
2022-08-07T07:31:39.792Z,21.23
2022-08-07T07:32:35.570Z,21.35
2022-08-07T07:33:34.892Z,21.36
2022-08-07T07:34:35.137Z,21.42
2022-08-07T07:35:44.060Z,21.42
2022-08-07T07:36:36.692Z,21.48
2022-08-07T07:37:47.155Z,21.53
2022-08-07T07:38:37.345Z,21.57
2022-08-07T07:39:51.965Z,21.56
2022-08-07T07:40:37.911Z,21.61
2022-08-07T07:42:08.498Z,21.63
2022-08-07T07:42:38.475Z,21.60
2022-08-07T07:43:47.762Z,21.60
2022-08-07T07:44:39.092Z,21.66
2022-08-07T07:46:40.330Z,21.72
2022-08-07T07:46:54.092Z,21.76
2022-08-07T07:47:42.972Z,21.79
2022-08-07T07:48:40.266Z,21.88
2022-08-07T07:50:33.877Z,21.94
2022-08-07T07:50:40.771Z,21.98
2022-08-07T07:51:57.447Z,22.06
2022-08-07T07:52:41.333Z,22.09
2022-08-07T07:53:52.184Z,22.07
2022-08-07T07:54:50.771Z,22.07
2022-08-07T07:55:45.636Z,22.04
2022-08-07T07:56:42.517Z,22.13
2022-08-07T07:57:50.388Z,22.22
2022-08-07T07:58:43.005Z,22.22
2022-08-07T07:59:52.848Z,22.28
2022-08-07T08:00:43.491Z,22.29
2022-08-07T08:02:03.464Z,22.28
2022-08-07T08:03:01.005Z,22.34
2022-08-07T08:04:09.572Z,22.43
2022-08-07T08:04:44.670Z,22.53
2022-08-07T08:05:55.163Z,22.57
2022-08-07T08:06:52.034Z,22.62
2022-08-07T08:07:51.825Z,22.75
2022-08-07T08:08:45.773Z,22.86
2022-08-07T08:09:52.122Z,22.94
2022-08-07T08:10:46.379Z,23.02
2022-08-07T08:11:59.492Z,23.15
2022-08-07T08:12:52.423Z,23.23
2022-08-07T08:13:55.486Z,23.35
2022-08-07T08:14:47.514Z,23.52
2022-08-07T08:15:59.181Z,23.67
2022-08-07T08:16:50.490Z,23.72
2022-08-07T08:17:57.527Z,23.92
2022-08-07T08:18:50.492Z,24.04
2022-08-07T08:20:17.569Z,24.07
2022-08-07T08:20:49.084Z,24.20
2022-08-07T08:21:58.585Z,24.35
2022-08-07T08:22:55.854Z,24.59
2022-08-07T08:23:49.978Z,24.69
2022-08-07T08:24:57.398Z,24.76
2022-08-07T08:25:50.521Z,24.95
2022-08-07T08:26:50.310Z,25.07
2022-08-07T08:27:56.713Z,25.39
2022-08-07T08:28:51.387Z,25.52
2022-08-07T08:29:54.484Z,25.82
2022-08-07T08:30:55.694Z,26.37
2022-08-07T08:32:17.591Z,26.89
2022-08-07T08:32:52.522Z,27.29
2022-08-07T08:33:55.781Z,27.62
2022-08-07T08:34:53.116Z,27.84
2022-08-07T08:35:52.355Z,28.04
2022-08-07T08:36:57.794Z,28.47
2022-08-07T08:38:00.651Z,28.38
2022-08-07T08:38:54.223Z,28.63
2022-08-07T08:39:55.120Z,28.65
2022-08-07T08:40:54.723Z,28.90
2022-08-07T08:41:58.306Z,29.07
2022-08-07T08:42:55.370Z,29.44
2022-08-07T08:43:58.962Z,29.74
2022-08-07T08:44:54.972Z,29.92
2022-08-07T08:45:59.129Z,30.05
2022-08-07T08:46:56.490Z,29.89
2022-08-07T08:47:55.743Z,29.92
2022-08-07T08:48:55.967Z,30.14
2022-08-07T08:50:04.779Z,30.24
2022-08-07T08:50:57.573Z,30.52
2022-08-07T08:52:14.107Z,30.80
2022-08-07T08:52:58.168Z,31.04
2022-08-07T08:53:57.462Z,31.26
2022-08-07T08:54:57.854Z,31.26
2022-08-07T08:55:59.140Z,31.18
2022-08-07T08:56:58.465Z,31.35
2022-08-07T08:57:58.689Z,31.43
2022-08-07T08:58:58.950Z,31.64
2022-08-07T09:00:00.281Z,31.92
2022-08-07T09:01:00.843Z,32.02
2022-08-07T09:01:59.950Z,32.17
2022-08-07T09:03:00.839Z,32.13
2022-08-07T09:04:00.351Z,32.05
2022-08-07T09:05:00.592Z,32.15
2022-08-07T09:06:00.996Z,32.35
2022-08-07T09:07:01.217Z,32.51
2022-08-07T09:08:01.616Z,32.39
2022-08-07T09:09:01.965Z,32.33
2022-08-07T09:10:03.538Z,32.17
2022-08-07T09:11:02.535Z,32.25
2022-08-07T09:12:30.194Z,32.24
2022-08-07T09:13:04.094Z,32.24
2022-08-07T09:14:03.322Z,32.24
2022-08-07T09:16:20.036Z,32.62
2022-08-07T09:16:23.995Z,32.73
2022-08-07T09:17:05.333Z,32.70
2022-08-07T09:18:11.490Z,32.67
2022-08-07T09:19:07.148Z,32.66
2022-08-07T09:20:26.734Z,32.58
2022-08-07T09:21:06.207Z,32.71
2022-08-07T09:24:27.469Z,32.69
2022-08-07T09:24:32.047Z,32.70
2022-08-07T09:24:32.969Z,32.85
2022-08-07T09:25:14.611Z,33.17
2022-08-07T09:26:07.673Z,32.93
2022-08-07T09:27:11.984Z,32.93
2022-08-07T09:29:24.349Z,33.07
2022-08-07T09:30:05.418Z,33.14
2022-08-07T09:30:09.352Z,33.42
2022-08-07T09:31:08.419Z,33.82
2022-08-07T09:32:16.996Z,34.07
2022-08-07T09:33:16.736Z,34.00
2022-08-07T09:34:09.954Z,34.02
2022-08-07T09:36:04.168Z,33.98
2022-08-07T09:36:10.492Z,33.94
2022-08-07T09:37:09.719Z,33.64
2022-08-07T09:38:10.326Z,33.60
2022-08-07T09:39:27.360Z,33.48
2022-08-07T09:40:11.665Z,33.60
2022-08-07T09:41:10.910Z,33.45
2022-08-07T09:42:12.843Z,33.49
2022-08-07T09:43:12.478Z,33.82
2022-08-07T09:44:19.391Z,33.90
2022-08-07T09:47:37.204Z,33.79
2022-08-07T09:47:51.238Z,34.23
2022-08-07T09:47:52.194Z,34.09
2022-08-07T09:48:14.591Z,34.16
2022-08-07T09:50:01.222Z,34.17
2022-08-07T09:50:19.622Z,34.19
2022-08-07T09:52:16.073Z,34.13
2022-08-07T09:52:33.361Z,33.76
2022-08-07T09:53:15.396Z,33.37
2022-08-07T09:54:16.257Z,33.49
2022-08-07T09:55:16.884Z,33.80
2022-08-07T09:56:19.686Z,33.71
2022-08-07T09:57:16.446Z,33.73
2022-08-07T09:58:15.742Z,33.43
2022-08-07T09:59:15.948Z,33.67
2022-08-07T10:00:18.769Z,33.57
2022-08-07T10:01:51.099Z,33.85
2022-08-07T10:02:17.955Z,33.98
2022-08-07T10:04:06.115Z,34.26
2022-08-07T10:04:18.528Z,34.13
2022-08-07T10:05:18.751Z,33.95
2022-08-07T10:06:19.142Z,34.17
2022-08-07T10:07:24.448Z,34.14
2022-08-07T10:08:19.676Z,34.38
2022-08-07T10:09:23.638Z,34.64
2022-08-07T10:10:21.506Z,34.36
2022-08-07T10:12:02.358Z,34.41
2022-08-07T10:12:21.764Z,34.46
2022-08-07T10:13:55.099Z,34.70
2022-08-07T10:14:23.076Z,34.45
2022-08-07T10:15:21.697Z,34.73
2022-08-07T10:16:21.002Z,34.48
2022-08-07T10:17:21.270Z,34.89
2022-08-07T10:18:21.567Z,35.26
2022-08-07T10:19:23.177Z,35.60
2022-08-07T10:20:30.254Z,35.23
2022-08-07T10:22:12.649Z,35.35
2022-08-07T10:22:24.963Z,35.70
2022-08-07T10:24:05.724Z,35.81
2022-08-07T10:24:24.097Z,35.95
2022-08-07T10:25:23.322Z,35.48
2022-08-07T10:26:24.997Z,35.23
2022-08-07T10:27:23.839Z,35.18
2022-08-07T10:28:24.151Z,35.25
2022-08-07T10:29:24.409Z,35.21
2022-08-07T10:30:26.496Z,35.11
2022-08-07T10:31:24.955Z,35.20
2022-08-07T10:32:51.589Z,34.79
2022-08-07T10:34:05.833Z,34.39
2022-08-07T10:34:32.218Z,34.88
2022-08-07T10:35:27.082Z,34.86
2022-08-07T10:36:29.827Z,34.17
2022-08-07T10:38:00.737Z,33.19
2022-08-07T10:38:35.963Z,32.13
2022-08-07T10:39:42.192Z,32.13
2022-08-07T10:40:30.379Z,31.46
2022-08-07T10:41:53.052Z,32.29
2022-08-07T10:42:31.252Z,31.77
2022-08-07T10:43:34.169Z,31.46
2022-08-07T10:44:38.568Z,32.55
2022-08-07T10:45:45.423Z,33.29
2022-08-07T10:46:30.212Z,33.52
2022-08-07T10:47:52.576Z,34.08
2022-08-07T10:48:34.909Z,34.58
2022-08-07T10:49:49.772Z,34.96
2022-08-07T10:50:31.278Z,35.28
2022-08-07T10:51:57.512Z,35.37
2022-08-07T10:52:33.919Z,35.48
2022-08-07T10:53:44.001Z,35.10
2022-08-07T10:54:32.318Z,35.30
2022-08-07T10:55:38.114Z,35.62
2022-08-07T10:56:32.840Z,35.82
2022-08-07T10:57:34.790Z,36.08
2022-08-07T10:58:36.627Z,36.30
2022-08-07T10:59:37.255Z,36.12
2022-08-07T11:00:39.774Z,36.14
2022-08-07T11:01:35.816Z,36.39
2022-08-07T11:02:35.198Z,36.14
2022-08-07T11:03:37.923Z,35.64
2022-08-07T11:04:37.743Z,35.70
2022-08-07T11:05:35.475Z,35.92
2022-08-07T11:06:35.642Z,35.67
2022-08-07T11:07:58.952Z,35.77
2022-08-07T11:08:36.096Z,36.14
2022-08-07T11:10:10.303Z,36.43
2022-08-07T11:10:37.360Z,36.64
2022-08-07T11:11:36.124Z,36.68
2022-08-07T11:12:36.305Z,36.58
2022-08-07T11:14:43.880Z,36.72
2022-08-07T11:14:46.518Z,36.60
2022-08-07T11:15:38.133Z,36.86
2022-08-07T11:16:37.444Z,36.87
2022-08-07T11:17:43.465Z,35.25
2022-08-07T11:18:38.944Z,34.91
2022-08-07T11:19:38.164Z,34.79
2022-08-07T11:20:38.398Z,34.24
2022-08-07T11:21:40.868Z,33.98
2022-08-07T11:22:45.593Z,34.19
2022-08-07T11:23:40.298Z,34.56
2022-08-07T11:24:39.556Z,34.70
2022-08-07T11:25:48.275Z,34.83
2022-08-07T11:26:48.335Z,35.32
2022-08-07T11:28:03.246Z,35.06
2022-08-07T11:28:41.706Z,35.40
2022-08-07T11:29:47.300Z,35.93
2022-08-07T11:30:42.482Z,35.57
2022-08-07T11:31:41.513Z,35.48
2022-08-07T11:32:41.858Z,35.29
2022-08-07T11:33:53.893Z,34.94
2022-08-07T11:34:43.402Z,34.73
2022-08-07T11:36:00.239Z,34.44
2022-08-07T11:36:44.067Z,34.46
2022-08-07T11:37:58.002Z,33.85
2022-08-07T11:38:50.621Z,33.89
2022-08-07T11:40:00.372Z,34.09
2022-08-07T11:40:49.486Z,33.90
2022-08-07T11:42:02.487Z,34.20
2022-08-07T11:42:45.933Z,34.60
2022-08-07T11:44:11.052Z,34.84
2022-08-07T11:44:52.641Z,34.92
2022-08-07T11:45:53.130Z,35.03
2022-08-07T11:46:48.666Z,35.11
2022-08-07T11:47:56.662Z,35.50
2022-08-07T11:49:28.582Z,35.33
2022-08-07T11:50:11.261Z,34.51
2022-08-07T11:50:57.208Z,34.31
2022-08-07T11:51:48.558Z,33.87
2022-08-07T11:52:47.872Z,34.42
2022-08-07T11:54:00.686Z,34.63
2022-08-07T11:54:54.889Z,34.80
2022-08-07T11:56:25.484Z,34.56
2022-08-07T11:56:53.183Z,34.11
2022-08-07T11:57:59.506Z,34.27
2022-08-07T11:58:50.674Z,34.51
2022-08-07T12:00:11.140Z,34.61
2022-08-07T12:01:00.228Z,34.89
2022-08-07T12:01:58.791Z,34.54
2022-08-07T12:02:52.433Z,34.07
2022-08-07T12:03:51.000Z,33.98
2022-08-07T12:04:51.265Z,33.89
2022-08-07T12:05:51.649Z,33.67
2022-08-07T12:06:59.064Z,33.39
2022-08-07T12:07:53.757Z,33.15
2022-08-07T12:08:53.498Z,33.04
2022-08-07T12:09:52.860Z,32.86
2022-08-07T12:11:08.459Z,32.74
2022-08-07T12:12:10.554Z,32.57
2022-08-07T12:12:54.646Z,32.42
2022-08-07T12:13:53.930Z,32.17
2022-08-07T12:14:56.383Z,31.85
2022-08-07T12:16:05.796Z,31.58
2022-08-07T12:16:55.778Z,31.36
2022-08-07T12:17:59.516Z,31.11
2022-08-07T12:18:56.365Z,30.98
2022-08-07T12:20:03.472Z,30.89
2022-08-07T12:20:56.998Z,30.84
2022-08-07T12:22:37.873Z,30.81
2022-08-07T12:22:58.653Z,30.65
2022-08-07T12:24:07.465Z,30.57
2022-08-07T12:25:02.311Z,30.57
2022-08-07T12:26:02.933Z,30.33
2022-08-07T12:26:58.747Z,30.29
2022-08-07T12:28:09.646Z,30.27
2022-08-07T12:29:00.622Z,30.26
2022-08-07T12:29:58.720Z,30.31
2022-08-07T12:30:59.139Z,30.36
2022-08-07T12:32:04.133Z,30.36
2022-08-07T12:33:00.593Z,30.37
2022-08-07T12:34:01.684Z,30.24
2022-08-07T12:35:00.971Z,30.19
2022-08-07T12:36:02.084Z,30.24
2022-08-07T12:37:00.833Z,30.08
2022-08-07T12:38:11.517Z,30.03
2022-08-07T12:39:02.445Z,29.90
2022-08-07T12:40:01.614Z,29.84
2022-08-07T12:41:01.968Z,29.79
2022-08-07T12:42:02.401Z,29.66
2022-08-07T12:43:02.993Z,29.59
2022-08-07T12:44:05.614Z,29.50
2022-08-07T12:45:05.694Z,29.49
2022-08-07T12:46:03.293Z,29.45
2022-08-07T12:47:03.545Z,29.49
2022-08-07T12:48:03.878Z,29.41
2022-08-07T12:49:10.105Z,29.41
2022-08-07T12:50:34.510Z,29.41
2022-08-07T12:51:17.431Z,29.43
2022-08-07T12:52:14.601Z,29.45
2022-08-07T12:53:18.073Z,29.49
2022-08-07T12:54:38.170Z,29.52
2022-08-07T12:55:09.617Z,29.59
2022-08-07T12:56:09.159Z,29.63
2022-08-07T12:57:09.430Z,29.70